sensor_id;sensor_type;location;lat;lon;timestamp;P1;durP1;ratioP1;P2;durP2;ratioP2
52776;SDS011;38656;54.260;20.822;2022-12-10T00:02:04;59.38;;;32.42;;
52776;SDS011;38656;54.260;20.822;2022-12-10T00:04:30;43.80;;;28.75;;
52776;SDS011;38656;54.260;20.822;2022-12-10T00:06:57;48.30;;;31.63;;
52776;SDS011;38656;54.260;20.822;2022-12-10T00:09:23;68.35;;;32.15;;
52776;SDS011;38656;54.260;20.822;2022-12-10T00:11:49;51.03;;;30.50;;
52776;SDS011;38656;54.260;20.822;2022-12-10T00:14:15;64.38;;;32.47;;
52776;SDS011;38656;54.260;20.822;2022-12-10T00:16:42;50.35;;;33.05;;
52776;SDS011;38656;54.260;20.822;2022-12-10T00:19:08;51.80;;;30.85;;
52776;SDS011;38656;54.260;20.822;2022-12-10T00:21:35;41.28;;;27.80;;
52776;SDS011;38656;54.260;20.822;2022-12-10T00:24:02;41.75;;;28.33;;
52776;SDS011;38656;54.260;20.822;2022-12-10T00:26:34;48.97;;;27.98;;
52776;SDS011;38656;54.260;20.822;2022-12-10T00:29:02;41.50;;;25.67;;
52776;SDS011;38656;54.260;20.822;2022-12-10T00:31:30;42.70;;;25.00;;
52776;SDS011;38656;54.260;20.822;2022-12-10T00:33:59;38.47;;;26.45;;
52776;SDS011;38656;54.260;20.822;2022-12-10T00:36:29;42.78;;;25.23;;
52776;SDS011;38656;54.260;20.822;2022-12-10T00:38:57;44.47;;;26.52;;
52776;SDS011;38656;54.260;20.822;2022-12-10T00:41:24;41.88;;;29.63;;
52776;SDS011;38656;54.260;20.822;2022-12-10T00:43:50;74.38;;;42.40;;
52776;SDS011;38656;54.260;20.822;2022-12-10T00:46:16;57.45;;;38.83;;
52776;SDS011;38656;54.260;20.822;2022-12-10T00:48:43;56.15;;;33.72;;
52776;SDS011;38656;54.260;20.822;2022-12-10T00:51:14;50.10;;;31.15;;
52776;SDS011;38656;54.260;20.822;2022-12-10T00:53:43;50.50;;;30.75;;
52776;SDS011;38656;54.260;20.822;2022-12-10T00:56:11;45.97;;;29.95;;
52776;SDS011;38656;54.260;20.822;2022-12-10T00:58:39;53.42;;;31.63;;
52776;SDS011;38656;54.260;20.822;2022-12-10T01:01:07;41.60;;;28.77;;
52776;SDS011;38656;54.260;20.822;2022-12-10T01:03:49;43.35;;;27.67;;
52776;SDS011;38656;54.260;20.822;2022-12-10T01:06:17;47.92;;;27.55;;
52776;SDS011;38656;54.260;20.822;2022-12-10T01:08:47;44.17;;;27.42;;
52776;SDS011;38656;54.260;20.822;2022-12-10T01:11:15;43.08;;;27.10;;
52776;SDS011;38656;54.260;20.822;2022-12-10T01:13:43;48.00;;;30.13;;
52776;SDS011;38656;54.260;20.822;2022-12-10T01:16:11;37.63;;;25.52;;
52776;SDS011;38656;54.260;20.822;2022-12-10T01:18:39;44.17;;;29.38;;
52776;SDS011;38656;54.260;20.822;2022-12-10T01:21:10;47.38;;;32.38;;
52776;SDS011;38656;54.260;20.822;2022-12-10T01:23:38;42.03;;;28.13;;
52776;SDS011;38656;54.260;20.822;2022-12-10T01:26:07;46.08;;;28.55;;
52776;SDS011;38656;54.260;20.822;2022-12-10T01:28:36;41.15;;;26.50;;
52776;SDS011;38656;54.260;20.822;2022-12-10T01:31:08;46.90;;;28.75;;
52776;SDS011;38656;54.260;20.822;2022-12-10T01:33:36;50.97;;;32.65;;
52776;SDS011;38656;54.260;20.822;2022-12-10T01:36:05;44.95;;;31.23;;
52776;SDS011;38656;54.260;20.822;2022-12-10T01:38:33;47.95;;;29.13;;
52776;SDS011;38656;54.260;20.822;2022-12-10T01:41:00;45.45;;;29.38;;
52776;SDS011;38656;54.260;20.822;2022-12-10T01:43:27;45.65;;;29.75;;
52776;SDS011;38656;54.260;20.822;2022-12-10T01:46:14;43.28;;;27.33;;
52776;SDS011;38656;54.260;20.822;2022-12-10T01:48:40;39.25;;;25.23;;
52776;SDS011;38656;54.260;20.822;2022-12-10T01:51:07;44.25;;;27.75;;
52776;SDS011;38656;54.260;20.822;2022-12-10T01:53:34;61.60;;;34.05;;
52776;SDS011;38656;54.260;20.822;2022-12-10T01:56:00;47.58;;;29.27;;
52776;SDS011;38656;54.260;20.822;2022-12-10T01:58:27;47.53;;;27.95;;
52776;SDS011;38656;54.260;20.822;2022-12-10T02:01:13;47.53;;;28.80;;
52776;SDS011;38656;54.260;20.822;2022-12-10T02:04:00;42.20;;;23.98;;
52776;SDS011;38656;54.260;20.822;2022-12-10T02:06:55;39.45;;;25.70;;
52776;SDS011;38656;54.260;20.822;2022-12-10T02:20:20;37.15;;;23.90;;
52776;SDS011;38656;54.260;20.822;2022-12-10T02:28:38;50.20;;;28.13;;
52776;SDS011;38656;54.260;20.822;2022-12-10T02:31:22;43.78;;;27.95;;
52776;SDS011;38656;54.260;20.822;2022-12-10T02:33:55;47.60;;;29.25;;
52776;SDS011;38656;54.260;20.822;2022-12-10T02:36:24;43.47;;;28.52;;
52776;SDS011;38656;54.260;20.822;2022-12-10T02:38:53;46.83;;;26.52;;
52776;SDS011;38656;54.260;20.822;2022-12-10T02:41:25;42.15;;;28.02;;
52776;SDS011;38656;54.260;20.822;2022-12-10T02:43:58;46.00;;;26.08;;
52776;SDS011;38656;54.260;20.822;2022-12-10T02:46:28;42.38;;;27.23;;
52776;SDS011;38656;54.260;20.822;2022-12-10T02:48:57;45.08;;;27.73;;
52776;SDS011;38656;54.260;20.822;2022-12-10T02:51:26;41.47;;;25.35;;
52776;SDS011;38656;54.260;20.822;2022-12-10T02:54:02;43.58;;;27.17;;
52776;SDS011;38656;54.260;20.822;2022-12-10T03:04:43;35.55;;;24.10;;
52776;SDS011;38656;54.260;20.822;2022-12-10T03:07:23;38.20;;;24.42;;
52776;SDS011;38656;54.260;20.822;2022-12-10T03:10:11;37.35;;;25.20;;
52776;SDS011;38656;54.260;20.822;2022-12-10T03:12:54;35.83;;;25.33;;
52776;SDS011;38656;54.260;20.822;2022-12-10T03:15:28;33.00;;;23.52;;
52776;SDS011;38656;54.260;20.822;2022-12-10T03:17:58;39.53;;;25.73;;
52776;SDS011;38656;54.260;20.822;2022-12-10T03:20:30;38.85;;;25.38;;
52776;SDS011;38656;54.260;20.822;2022-12-10T03:22:58;33.83;;;25.48;;
52776;SDS011;38656;54.260;20.822;2022-12-10T03:25:25;35.50;;;24.55;;
52776;SDS011;38656;54.260;20.822;2022-12-10T03:27:55;38.63;;;25.73;;
52776;SDS011;38656;54.260;20.822;2022-12-10T03:30:23;34.13;;;25.98;;
52776;SDS011;38656;54.260;20.822;2022-12-10T03:32:50;37.95;;;27.52;;
52776;SDS011;38656;54.260;20.822;2022-12-10T03:35:17;39.33;;;28.90;;
52776;SDS011;38656;54.260;20.822;2022-12-10T03:37:47;40.75;;;28.70;;
52776;SDS011;38656;54.260;20.822;2022-12-10T03:40:14;44.13;;;28.98;;
52776;SDS011;38656;54.260;20.822;2022-12-10T03:42:45;33.92;;;25.73;;
52776;SDS011;38656;54.260;20.822;2022-12-10T03:45:11;49.13;;;30.17;;
52776;SDS011;38656;54.260;20.822;2022-12-10T03:47:38;39.28;;;27.15;;
52776;SDS011;38656;54.260;20.822;2022-12-10T03:50:06;47.53;;;28.13;;
52776;SDS011;38656;54.260;20.822;2022-12-10T03:52:32;95.75;;;39.25;;
52776;SDS011;38656;54.260;20.822;2022-12-10T03:54:59;96.38;;;39.97;;
52776;SDS011;38656;54.260;20.822;2022-12-10T03:57:25;93.93;;;42.00;;
52776;SDS011;38656;54.260;20.822;2022-12-10T03:59:51;54.45;;;34.75;;
52776;SDS011;38656;54.260;20.822;2022-12-10T04:02:18;44.60;;;29.85;;
52776;SDS011;38656;54.260;20.822;2022-12-10T04:04:44;28.02;;;22.23;;
52776;SDS011;38656;54.260;20.822;2022-12-10T04:07:13;23.08;;;19.65;;
52776;SDS011;38656;54.260;20.822;2022-12-10T04:09:39;24.60;;;20.92;;
52776;SDS011;38656;54.260;20.822;2022-12-10T04:12:05;26.92;;;21.45;;
52776;SDS011;38656;54.260;20.822;2022-12-10T04:14:31;26.30;;;19.48;;
52776;SDS011;38656;54.260;20.822;2022-12-10T04:17:16;23.35;;;19.85;;
52776;SDS011;38656;54.260;20.822;2022-12-10T04:19:43;23.52;;;21.02;;
52776;SDS011;38656;54.260;20.822;2022-12-10T04:22:09;27.02;;;22.23;;
52776;SDS011;38656;54.260;20.822;2022-12-10T04:24:54;26.55;;;20.77;;
52776;SDS011;38656;54.260;20.822;2022-12-10T04:30:06;24.42;;;19.63;;
52776;SDS011;38656;54.260;20.822;2022-12-10T04:32:35;23.30;;;17.95;;
52776;SDS011;38656;54.260;20.822;2022-12-10T04:35:02;22.92;;;19.48;;
52776;SDS011;38656;54.260;20.822;2022-12-10T04:37:31;27.92;;;18.73;;
52776;SDS011;38656;54.260;20.822;2022-12-10T04:39:57;24.38;;;19.10;;
52776;SDS011;38656;54.260;20.822;2022-12-10T04:42:23;26.63;;;22.35;;
52776;SDS011;38656;54.260;20.822;2022-12-10T04:44:52;30.65;;;24.58;;
52776;SDS011;38656;54.260;20.822;2022-12-10T04:47:18;35.40;;;25.27;;
52776;SDS011;38656;54.260;20.822;2022-12-10T04:49:44;29.75;;;24.60;;
52776;SDS011;38656;54.260;20.822;2022-12-10T04:52:12;37.55;;;33.25;;
52776;SDS011;38656;54.260;20.822;2022-12-10T04:54:39;36.45;;;30.75;;
52776;SDS011;38656;54.260;20.822;2022-12-10T04:57:06;35.33;;;31.52;;
52776;SDS011;38656;54.260;20.822;2022-12-10T04:59:33;29.65;;;25.10;;
52776;SDS011;38656;54.260;20.822;2022-12-10T05:02:00;24.10;;;20.23;;
52776;SDS011;38656;54.260;20.822;2022-12-10T05:04:27;21.42;;;17.80;;
52776;SDS011;38656;54.260;20.822;2022-12-10T05:06:53;20.45;;;17.92;;
52776;SDS011;38656;54.260;20.822;2022-12-10T05:09:19;24.88;;;20.67;;
52776;SDS011;38656;54.260;20.822;2022-12-10T05:11:45;25.73;;;22.05;;
52776;SDS011;38656;54.260;20.822;2022-12-10T05:14:12;30.55;;;24.75;;
52776;SDS011;38656;54.260;20.822;2022-12-10T05:16:40;26.88;;;23.98;;
52776;SDS011;38656;54.260;20.822;2022-12-10T05:19:07;28.05;;;23.60;;
52776;SDS011;38656;54.260;20.822;2022-12-10T05:21:34;34.63;;;28.15;;
52776;SDS011;38656;54.260;20.822;2022-12-10T05:24:19;32.83;;;25.60;;
52776;SDS011;38656;54.260;20.822;2022-12-10T05:26:45;32.28;;;27.92;;
52776;SDS011;38656;54.260;20.822;2022-12-10T05:29:15;37.83;;;28.42;;
52776;SDS011;38656;54.260;20.822;2022-12-10T05:31:42;30.42;;;25.40;;
52776;SDS011;38656;54.260;20.822;2022-12-10T05:34:09;26.08;;;22.42;;
52776;SDS011;38656;54.260;20.822;2022-12-10T05:36:36;24.63;;;21.65;;
52776;SDS011;38656;54.260;20.822;2022-12-10T05:39:02;32.92;;;26.55;;
52776;SDS011;38656;54.260;20.822;2022-12-10T05:41:29;41.78;;;32.83;;
52776;SDS011;38656;54.260;20.822;2022-12-10T05:43:59;68.32;;;50.67;;
52776;SDS011;38656;54.260;20.822;2022-12-10T05:46:26;83.40;;;64.47;;
52776;SDS011;38656;54.260;20.822;2022-12-10T05:48:55;51.10;;;43.90;;
52776;SDS011;38656;54.260;20.822;2022-12-10T05:51:23;31.98;;;26.60;;
52776;SDS011;38656;54.260;20.822;2022-12-10T05:53:50;35.20;;;27.75;;
52776;SDS011;38656;54.260;20.822;2022-12-10T05:56:18;34.55;;;29.42;;
52776;SDS011;38656;54.260;20.822;2022-12-10T05:58:48;40.33;;;32.40;;
52776;SDS011;38656;54.260;20.822;2022-12-10T06:01:21;31.70;;;25.15;;
52776;SDS011;38656;54.260;20.822;2022-12-10T06:03:49;39.22;;;27.83;;
52776;SDS011;38656;54.260;20.822;2022-12-10T06:06:24;48.95;;;34.25;;
52776;SDS011;38656;54.260;20.822;2022-12-10T06:08:56;44.15;;;34.10;;
52776;SDS011;38656;54.260;20.822;2022-12-10T06:11:22;41.40;;;29.80;;
52776;SDS011;38656;54.260;20.822;2022-12-10T06:13:51;46.47;;;29.73;;
52776;SDS011;38656;54.260;20.822;2022-12-10T06:16:19;141.48;;;68.68;;
52776;SDS011;38656;54.260;20.822;2022-12-10T06:18:46;254.57;;;124.47;;
52776;SDS011;38656;54.260;20.822;2022-12-10T06:21:13;198.60;;;115.75;;
52776;SDS011;38656;54.260;20.822;2022-12-10T06:23:41;269.35;;;157.43;;
52776;SDS011;38656;54.260;20.822;2022-12-10T06:26:16;171.82;;;90.05;;
52776;SDS011;38656;54.260;20.822;2022-12-10T06:28:45;95.00;;;57.08;;
52776;SDS011;38656;54.260;20.822;2022-12-10T06:31:12;54.92;;;40.42;;
52776;SDS011;38656;54.260;20.822;2022-12-10T06:33:39;58.22;;;45.08;;
52776;SDS011;38656;54.260;20.822;2022-12-10T06:36:07;83.30;;;47.15;;
52776;SDS011;38656;54.260;20.822;2022-12-10T06:38:34;54.70;;;40.05;;
52776;SDS011;38656;54.260;20.822;2022-12-10T06:41:03;36.47;;;27.95;;
52776;SDS011;38656;54.260;20.822;2022-12-10T06:43:31;36.30;;;30.02;;
52776;SDS011;38656;54.260;20.822;2022-12-10T06:45:57;50.95;;;37.15;;
52776;SDS011;38656;54.260;20.822;2022-12-10T06:48:24;76.35;;;48.17;;
52776;SDS011;38656;54.260;20.822;2022-12-10T06:50:50;55.35;;;41.28;;
52776;SDS011;38656;54.260;20.822;2022-12-10T06:53:16;62.53;;;46.25;;
52776;SDS011;38656;54.260;20.822;2022-12-10T06:55:43;55.38;;;44.47;;
52776;SDS011;38656;54.260;20.822;2022-12-10T06:58:12;95.63;;;61.45;;
52776;SDS011;38656;54.260;20.822;2022-12-10T07:00:38;144.18;;;76.45;;
52776;SDS011;38656;54.260;20.822;2022-12-10T07:03:07;86.95;;;47.15;;
52776;SDS011;38656;54.260;20.822;2022-12-10T07:05:33;78.88;;;49.47;;
52776;SDS011;38656;54.260;20.822;2022-12-10T07:08:00;87.82;;;54.05;;
52776;SDS011;38656;54.260;20.822;2022-12-10T07:10:26;63.78;;;45.95;;
52776;SDS011;38656;54.260;20.822;2022-12-10T07:12:52;53.45;;;41.60;;
52776;SDS011;38656;54.260;20.822;2022-12-10T07:15:20;38.70;;;33.78;;
52776;SDS011;38656;54.260;20.822;2022-12-10T07:17:48;103.20;;;61.65;;
52776;SDS011;38656;54.260;20.822;2022-12-10T07:20:15;215.43;;;100.68;;
52776;SDS011;38656;54.260;20.822;2022-12-10T07:22:41;74.70;;;55.97;;
52776;SDS011;38656;54.260;20.822;2022-12-10T07:25:08;126.65;;;71.45;;
52776;SDS011;38656;54.260;20.822;2022-12-10T07:27:34;189.13;;;93.45;;
52776;SDS011;38656;54.260;20.822;2022-12-10T07:30:00;188.70;;;94.32;;
52776;SDS011;38656;54.260;20.822;2022-12-10T07:32:27;391.10;;;202.18;;
52776;SDS011;38656;54.260;20.822;2022-12-10T07:34:53;159.80;;;81.10;;
52776;SDS011;38656;54.260;20.822;2022-12-10T07:37:19;95.68;;;60.05;;
52776;SDS011;38656;54.260;20.822;2022-12-10T07:39:45;58.17;;;46.85;;
52776;SDS011;38656;54.260;20.822;2022-12-10T07:42:11;57.63;;;47.13;;
52776;SDS011;38656;54.260;20.822;2022-12-10T07:44:38;55.60;;;40.83;;
52776;SDS011;38656;54.260;20.822;2022-12-10T07:47:04;106.35;;;58.65;;
52776;SDS011;38656;54.260;20.822;2022-12-10T07:49:31;109.25;;;61.83;;
52776;SDS011;38656;54.260;20.822;2022-12-10T07:51:57;60.63;;;43.70;;
52776;SDS011;38656;54.260;20.822;2022-12-10T07:54:23;327.70;;;124.82;;
52776;SDS011;38656;54.260;20.822;2022-12-10T07:56:49;159.25;;;71.53;;
52776;SDS011;38656;54.260;20.822;2022-12-10T07:59:16;54.85;;;43.40;;
52776;SDS011;38656;54.260;20.822;2022-12-10T08:01:42;69.15;;;52.45;;
52776;SDS011;38656;54.260;20.822;2022-12-10T08:04:08;470.77;;;248.07;;
52776;SDS011;38656;54.260;20.822;2022-12-10T08:06:34;382.70;;;178.38;;
52776;SDS011;38656;54.260;20.822;2022-12-10T08:09:01;302.30;;;135.45;;
52776;SDS011;38656;54.260;20.822;2022-12-10T08:11:28;174.35;;;91.18;;
52776;SDS011;38656;54.260;20.822;2022-12-10T08:13:55;220.85;;;123.60;;
52776;SDS011;38656;54.260;20.822;2022-12-10T08:16:22;72.65;;;55.70;;
52776;SDS011;38656;54.260;20.822;2022-12-10T08:18:50;59.17;;;49.03;;
52776;SDS011;38656;54.260;20.822;2022-12-10T08:21:19;93.97;;;66.18;;
52776;SDS011;38656;54.260;20.822;2022-12-10T08:23:47;109.70;;;72.25;;
52776;SDS011;38656;54.260;20.822;2022-12-10T08:26:18;160.55;;;84.68;;
52776;SDS011;38656;54.260;20.822;2022-12-10T08:28:47;108.80;;;67.68;;
52776;SDS011;38656;54.260;20.822;2022-12-10T08:31:14;100.55;;;69.15;;
52776;SDS011;38656;54.260;20.822;2022-12-10T08:33:42;192.15;;;101.45;;
52776;SDS011;38656;54.260;20.822;2022-12-10T08:36:10;107.90;;;70.07;;
52776;SDS011;38656;54.260;20.822;2022-12-10T08:38:38;111.80;;;60.67;;
52776;SDS011;38656;54.260;20.822;2022-12-10T08:41:09;166.35;;;88.10;;
52776;SDS011;38656;54.260;20.822;2022-12-10T08:43:38;146.80;;;77.32;;
52776;SDS011;38656;54.260;20.822;2022-12-10T08:46:04;171.15;;;87.13;;
52776;SDS011;38656;54.260;20.822;2022-12-10T08:48:31;194.23;;;98.88;;
52776;SDS011;38656;54.260;20.822;2022-12-10T08:50:58;160.07;;;87.28;;
52776;SDS011;38656;54.260;20.822;2022-12-10T08:53:24;185.65;;;92.53;;
52776;SDS011;38656;54.260;20.822;2022-12-10T08:55:51;128.38;;;70.22;;
52776;SDS011;38656;54.260;20.822;2022-12-10T08:58:18;112.88;;;63.10;;
52776;SDS011;38656;54.260;20.822;2022-12-10T09:00:46;172.57;;;84.78;;
52776;SDS011;38656;54.260;20.822;2022-12-10T09:03:13;101.53;;;61.10;;
52776;SDS011;38656;54.260;20.822;2022-12-10T09:05:41;102.80;;;62.83;;
52776;SDS011;38656;54.260;20.822;2022-12-10T09:08:07;56.92;;;46.63;;
52776;SDS011;38656;54.260;20.822;2022-12-10T09:10:35;56.15;;;45.95;;
52776;SDS011;38656;54.260;20.822;2022-12-10T09:13:02;95.05;;;60.67;;
52776;SDS011;38656;54.260;20.822;2022-12-10T09:15:29;86.28;;;58.78;;
52776;SDS011;38656;54.260;20.822;2022-12-10T09:17:55;86.80;;;57.92;;
52776;SDS011;38656;54.260;20.822;2022-12-10T09:20:21;58.40;;;41.90;;
52776;SDS011;38656;54.260;20.822;2022-12-10T09:22:48;39.83;;;35.55;;
52776;SDS011;38656;54.260;20.822;2022-12-10T09:25:15;50.50;;;40.25;;
52776;SDS011;38656;54.260;20.822;2022-12-10T09:27:41;68.13;;;50.70;;
52776;SDS011;38656;54.260;20.822;2022-12-10T09:30:09;122.07;;;68.85;;
52776;SDS011;38656;54.260;20.822;2022-12-10T09:32:36;51.10;;;39.13;;
52776;SDS011;38656;54.260;20.822;2022-12-10T09:35:02;57.35;;;45.58;;
52776;SDS011;38656;54.260;20.822;2022-12-10T09:37:31;51.13;;;40.35;;
52776;SDS011;38656;54.260;20.822;2022-12-10T09:39:58;41.65;;;34.72;;
52776;SDS011;38656;54.260;20.822;2022-12-10T09:48:46;58.80;;;48.30;;
52776;SDS011;38656;54.260;20.822;2022-12-10T09:51:11;65.40;;;47.53;;
52776;SDS011;38656;54.260;20.822;2022-12-10T09:53:46;114.45;;;54.92;;
52776;SDS011;38656;54.260;20.822;2022-12-10T09:56:23;204.20;;;91.13;;
52776;SDS011;38656;54.260;20.822;2022-12-10T09:58:56;224.70;;;93.65;;
52776;SDS011;38656;54.260;20.822;2022-12-10T10:01:24;93.07;;;56.72;;
52776;SDS011;38656;54.260;20.822;2022-12-10T10:03:54;55.70;;;43.70;;
52776;SDS011;38656;54.260;20.822;2022-12-10T10:06:20;211.27;;;108.00;;
52776;SDS011;38656;54.260;20.822;2022-12-10T10:08:51;151.95;;;85.55;;
52776;SDS011;38656;54.260;20.822;2022-12-10T10:11:23;158.85;;;81.32;;
52776;SDS011;38656;54.260;20.822;2022-12-10T10:13:55;103.15;;;66.95;;
52776;SDS011;38656;54.260;20.822;2022-12-10T10:16:27;67.43;;;50.40;;
52776;SDS011;38656;54.260;20.822;2022-12-10T10:19:03;82.72;;;56.78;;
52776;SDS011;38656;54.260;20.822;2022-12-10T10:21:46;156.93;;;74.05;;
52776;SDS011;38656;54.260;20.822;2022-12-10T10:24:18;176.73;;;68.65;;
52776;SDS011;38656;54.260;20.822;2022-12-10T10:26:46;151.48;;;65.47;;
52776;SDS011;38656;54.260;20.822;2022-12-10T10:29:18;254.80;;;119.88;;
52776;SDS011;38656;54.260;20.822;2022-12-10T10:31:46;93.05;;;63.40;;
52776;SDS011;38656;54.260;20.822;2022-12-10T10:34:33;93.72;;;58.10;;
52776;SDS011;38656;54.260;20.822;2022-12-10T10:37:03;84.38;;;60.22;;
52776;SDS011;38656;54.260;20.822;2022-12-10T10:39:31;70.18;;;52.42;;
52776;SDS011;38656;54.260;20.822;2022-12-10T10:42:00;136.35;;;68.18;;
52776;SDS011;38656;54.260;20.822;2022-12-10T10:47:02;80.00;;;54.15;;
52776;SDS011;38656;54.260;20.822;2022-12-10T10:49:56;219.73;;;87.05;;
52776;SDS011;38656;54.260;20.822;2022-12-10T10:52:23;206.57;;;87.25;;
52776;SDS011;38656;54.260;20.822;2022-12-10T10:54:55;157.27;;;68.68;;
52776;SDS011;38656;54.260;20.822;2022-12-10T10:57:23;98.85;;;52.83;;
52776;SDS011;38656;54.260;20.822;2022-12-10T11:00:03;173.35;;;72.13;;
52776;SDS011;38656;54.260;20.822;2022-12-10T11:02:43;153.32;;;64.72;;
52776;SDS011;38656;54.260;20.822;2022-12-10T11:05:23;209.40;;;87.03;;
52776;SDS011;38656;54.260;20.822;2022-12-10T11:10:29;82.90;;;57.80;;
52776;SDS011;38656;54.260;20.822;2022-12-10T11:13:03;134.60;;;74.03;;
52776;SDS011;38656;54.260;20.822;2022-12-10T11:15:36;140.52;;;71.97;;
52776;SDS011;38656;54.260;20.822;2022-12-10T11:18:25;102.65;;;61.08;;
52776;SDS011;38656;54.260;20.822;2022-12-10T11:28:59;162.55;;;69.07;;
52776;SDS011;38656;54.260;20.822;2022-12-10T11:42:26;105.43;;;61.53;;
52776;SDS011;38656;54.260;20.822;2022-12-10T11:47:57;98.13;;;59.67;;
52776;SDS011;38656;54.260;20.822;2022-12-10T11:50:48;101.10;;;53.28;;
52776;SDS011;38656;54.260;20.822;2022-12-10T11:53:27;74.35;;;44.78;;
52776;SDS011;38656;54.260;20.822;2022-12-10T11:56:13;64.90;;;41.78;;
52776;SDS011;38656;54.260;20.822;2022-12-10T12:15:40;45.85;;;34.97;;
52776;SDS011;38656;54.260;20.822;2022-12-10T12:20:49;51.80;;;32.72;;
52776;SDS011;38656;54.260;20.822;2022-12-10T12:23:41;50.53;;;36.72;;
52776;SDS011;38656;54.260;20.822;2022-12-10T12:26:10;57.85;;;40.10;;
52776;SDS011;38656;54.260;20.822;2022-12-10T12:28:52;70.25;;;46.97;;
52776;SDS011;38656;54.260;20.822;2022-12-10T12:31:27;49.50;;;40.38;;
52776;SDS011;38656;54.260;20.822;2022-12-10T12:34:00;110.80;;;60.72;;
52776;SDS011;38656;54.260;20.822;2022-12-10T12:36:36;162.05;;;77.68;;
52776;SDS011;38656;54.260;20.822;2022-12-10T12:44:28;191.73;;;93.25;;
52776;SDS011;38656;54.260;20.822;2022-12-10T12:47:02;164.05;;;85.40;;
52776;SDS011;38656;54.260;20.822;2022-12-10T12:49:53;127.75;;;73.13;;
52776;SDS011;38656;54.260;20.822;2022-12-10T12:54:57;74.18;;;56.60;;
52776;SDS011;38656;54.260;20.822;2022-12-10T12:57:44;67.93;;;50.13;;
52776;SDS011;38656;54.260;20.822;2022-12-10T13:00:27;82.88;;;56.78;;
52776;SDS011;38656;54.260;20.822;2022-12-10T13:05:53;71.40;;;53.92;;
52776;SDS011;38656;54.260;20.822;2022-12-10T13:10:53;154.85;;;75.18;;
52776;SDS011;38656;54.260;20.822;2022-12-10T13:13:36;116.90;;;63.50;;
52776;SDS011;38656;54.260;20.822;2022-12-10T13:40:25;125.50;;;71.65;;
52776;SDS011;38656;54.260;20.822;2022-12-10T13:43:20;168.13;;;92.35;;
52776;SDS011;38656;54.260;20.822;2022-12-10T13:46:20;216.73;;;120.85;;
52776;SDS011;38656;54.260;20.822;2022-12-10T13:48:48;173.43;;;82.85;;
52776;SDS011;38656;54.260;20.822;2022-12-10T13:54:13;233.27;;;134.75;;
52776;SDS011;38656;54.260;20.822;2022-12-10T13:59:49;189.77;;;81.28;;
52776;SDS011;38656;54.260;20.822;2022-12-10T14:08:16;277.77;;;95.50;;
52776;SDS011;38656;54.260;20.822;2022-12-10T14:10:50;115.63;;;54.08;;
52776;SDS011;38656;54.260;20.822;2022-12-10T14:13:19;100.13;;;51.55;;
52776;SDS011;38656;54.260;20.822;2022-12-10T14:15:57;94.93;;;54.17;;
52776;SDS011;38656;54.260;20.822;2022-12-10T14:18:27;154.52;;;78.55;;
52776;SDS011;38656;54.260;20.822;2022-12-10T14:20:56;233.23;;;128.65;;
52776;SDS011;38656;54.260;20.822;2022-12-10T14:23:29;156.18;;;67.40;;
52776;SDS011;38656;54.260;20.822;2022-12-10T14:31:33;194.80;;;83.57;;
52776;SDS011;38656;54.260;20.822;2022-12-10T14:34:07;146.50;;;73.20;;
52776;SDS011;38656;54.260;20.822;2022-12-10T14:36:37;135.85;;;78.82;;
52776;SDS011;38656;54.260;20.822;2022-12-10T14:39:19;103.20;;;61.22;;
52776;SDS011;38656;54.260;20.822;2022-12-10T14:41:51;67.90;;;48.20;;
52776;SDS011;38656;54.260;20.822;2022-12-10T14:44:21;67.82;;;50.58;;
52776;SDS011;38656;54.260;20.822;2022-12-10T14:46:48;109.25;;;62.70;;
52776;SDS011;38656;54.260;20.822;2022-12-10T14:49:15;114.05;;;63.90;;
52776;SDS011;38656;54.260;20.822;2022-12-10T14:51:46;204.32;;;102.07;;
52776;SDS011;38656;54.260;20.822;2022-12-10T14:54:29;142.55;;;68.38;;
52776;SDS011;38656;54.260;20.822;2022-12-10T14:56:58;177.25;;;86.88;;
52776;SDS011;38656;54.260;20.822;2022-12-10T14:59:35;120.60;;;64.18;;
52776;SDS011;38656;54.260;20.822;2022-12-10T15:02:11;109.57;;;60.97;;
52776;SDS011;38656;54.260;20.822;2022-12-10T15:04:51;144.13;;;75.47;;
52776;SDS011;38656;54.260;20.822;2022-12-10T15:07:20;240.63;;;107.15;;
52776;SDS011;38656;54.260;20.822;2022-12-10T15:09:49;229.30;;;96.43;;
52776;SDS011;38656;54.260;20.822;2022-12-10T15:15:21;338.45;;;128.23;;
52776;SDS011;38656;54.260;20.822;2022-12-10T15:18:27;181.07;;;83.90;;
52776;SDS011;38656;54.260;20.822;2022-12-10T15:20:51;200.55;;;78.38;;
52776;SDS011;38656;54.260;20.822;2022-12-10T15:28:29;57.13;;;40.28;;
52776;SDS011;38656;54.260;20.822;2022-12-10T15:31:08;59.58;;;43.75;;
52776;SDS011;38656;54.260;20.822;2022-12-10T15:33:37;50.30;;;37.30;;
52776;SDS011;38656;54.260;20.822;2022-12-10T15:36:04;57.00;;;43.33;;
52776;SDS011;38656;54.260;20.822;2022-12-10T15:38:37;31.55;;;25.58;;
52776;SDS011;38656;54.260;20.822;2022-12-10T15:44:03;55.45;;;41.00;;
52776;SDS011;38656;54.260;20.822;2022-12-10T15:46:30;42.15;;;31.30;;
52776;SDS011;38656;54.260;20.822;2022-12-10T15:48:57;39.90;;;34.97;;
52776;SDS011;38656;54.260;20.822;2022-12-10T15:51:24;56.72;;;44.13;;
52776;SDS011;38656;54.260;20.822;2022-12-10T15:53:51;63.92;;;48.50;;
52776;SDS011;38656;54.260;20.822;2022-12-10T15:56:17;176.68;;;73.88;;
52776;SDS011;38656;54.260;20.822;2022-12-10T15:58:43;162.98;;;73.65;;
52776;SDS011;38656;54.260;20.822;2022-12-10T16:01:12;204.50;;;89.63;;
52776;SDS011;38656;54.260;20.822;2022-12-10T16:03:40;196.52;;;87.20;;
52776;SDS011;38656;54.260;20.822;2022-12-10T16:06:07;125.15;;;66.03;;
52776;SDS011;38656;54.260;20.822;2022-12-10T16:08:33;68.95;;;49.90;;
52776;SDS011;38656;54.260;20.822;2022-12-10T16:11:02;53.95;;;42.58;;
52776;SDS011;38656;54.260;20.822;2022-12-10T16:13:45;98.72;;;57.22;;
52776;SDS011;38656;54.260;20.822;2022-12-10T16:16:16;76.10;;;53.50;;
52776;SDS011;38656;54.260;20.822;2022-12-10T16:18:42;88.22;;;57.28;;
52776;SDS011;38656;54.260;20.822;2022-12-10T16:21:09;149.43;;;71.75;;
52776;SDS011;38656;54.260;20.822;2022-12-10T16:23:35;208.95;;;91.45;;
52776;SDS011;38656;54.260;20.822;2022-12-10T16:26:04;154.00;;;83.50;;
52776;SDS011;38656;54.260;20.822;2022-12-10T16:28:41;68.75;;;52.92;;
52776;SDS011;38656;54.260;20.822;2022-12-10T16:31:09;43.55;;;37.92;;
52776;SDS011;38656;54.260;20.822;2022-12-10T16:33:38;64.78;;;52.95;;
52776;SDS011;38656;54.260;20.822;2022-12-10T16:36:04;79.85;;;53.60;;
52776;SDS011;38656;54.260;20.822;2022-12-10T16:38:31;129.02;;;66.45;;
52776;SDS011;38656;54.260;20.822;2022-12-10T16:40:58;106.85;;;50.95;;
52776;SDS011;38656;54.260;20.822;2022-12-10T16:43:26;118.90;;;56.72;;
52776;SDS011;38656;54.260;20.822;2022-12-10T16:45:53;246.88;;;92.97;;
52776;SDS011;38656;54.260;20.822;2022-12-10T16:48:20;244.18;;;96.63;;